sensor_id;sensor_type;location;lat;lon;timestamp;pressure;altitude;pressure_sealevel;temperature;humidity
84316;BME280;74496;52.236;5.164;2024-02-15T00:00:58;101579.66;;;13.35;83.02
84316;BME280;74496;52.236;5.164;2024-02-15T00:03:25;101585.09;;;13.34;82.90
84316;BME280;74496;52.236;5.164;2024-02-15T00:05:53;101576.88;;;13.27;83.38
84316;BME280;74496;52.236;5.164;2024-02-15T00:08:20;101577.00;;;13.26;83.81
84316;BME280;74496;52.236;5.164;2024-02-15T00:10:47;101580.88;;;13.22;84.18
84316;BME280;74496;52.236;5.164;2024-02-15T00:13:14;101576.03;;;13.27;84.10
84316;BME280;74496;52.236;5.164;2024-02-15T00:15:41;101580.53;;;13.36;83.61
84316;BME280;74496;52.236;5.164;2024-02-15T00:18:07;101569.78;;;13.37;83.64
84316;BME280;74496;52.236;5.164;2024-02-15T00:20:34;101576.31;;;13.33;83.95
84316;BME280;74496;52.236;5.164;2024-02-15T00:23:02;101575.50;;;13.33;84.28
84316;BME280;74496;52.236;5.164;2024-02-15T00:25:29;101573.41;;;13.46;83.75
84316;BME280;74496;52.236;5.164;2024-02-15T00:27:56;101573.13;;;13.49;83.68
84316;BME280;74496;52.236;5.164;2024-02-15T00:30:23;101565.19;;;13.59;83.17
84316;BME280;74496;52.236;5.164;2024-02-15T00:32:49;101572.00;;;13.61;82.94
84316;BME280;74496;52.236;5.164;2024-02-15T00:35:16;101565.88;;;13.71;82.34
84316;BME280;74496;52.236;5.164;2024-02-15T00:37:44;101569.06;;;13.65;82.79
84316;BME280;74496;52.236;5.164;2024-02-15T00:40:13;101556.38;;;13.58;82.93
84316;BME280;74496;52.236;5.164;2024-02-15T00:42:39;101564.06;;;13.52;83.32
84316;BME280;74496;52.236;5.164;2024-02-15T00:45:06;101558.63;;;13.44;84.00
84316;BME280;74496;52.236;5.164;2024-02-15T00:47:34;101551.94;;;13.49;83.45
84316;BME280;74496;52.236;5.164;2024-02-15T00:50:01;101554.97;;;13.45;83.66
84316;BME280;74496;52.236;5.164;2024-02-15T00:52:28;101551.94;;;13.49;83.37
84316;BME280;74496;52.236;5.164;2024-02-15T00:54:56;101553.88;;;13.47;83.90
84316;BME280;74496;52.236;5.164;2024-02-15T00:57:24;101556.66;;;13.46;83.70
84316;BME280;74496;52.236;5.164;2024-02-15T00:59:50;101554.00;;;13.46;83.98
84316;BME280;74496;52.236;5.164;2024-02-15T01:02:18;101556.53;;;13.47;83.73
84316;BME280;74496;52.236;5.164;2024-02-15T01:04:45;101550.22;;;13.29;83.95
84316;BME280;74496;52.236;5.164;2024-02-15T01:07:11;101547.47;;;13.50;83.51
84316;BME280;74496;52.236;5.164;2024-02-15T01:09:38;101547.88;;;13.55;83.06
84316;BME280;74496;52.236;5.164;2024-02-15T01:12:06;101544.94;;;13.48;83.03
84316;BME280;74496;52.236;5.164;2024-02-15T01:14:34;101538.09;;;13.55;83.02
84316;BME280;74496;52.236;5.164;2024-02-15T01:17:00;101533.78;;;13.54;83.11
84316;BME280;74496;52.236;5.164;2024-02-15T01:19:27;101543.84;;;13.51;83.36
84316;BME280;74496;52.236;5.164;2024-02-15T01:21:54;101541.75;;;13.64;82.62
84316;BME280;74496;52.236;5.164;2024-02-15T01:24:20;101543.56;;;13.54;82.92
84316;BME280;74496;52.236;5.164;2024-02-15T01:26:47;101547.03;;;13.54;82.95
84316;BME280;74496;52.236;5.164;2024-02-15T01:29:14;101538.81;;;13.57;82.97
84316;BME280;74496;52.236;5.164;2024-02-15T01:31:43;101540.63;;;13.57;83.04
84316;BME280;74496;52.236;5.164;2024-02-15T01:34:10;101543.28;;;13.57;83.25
84316;BME280;74496;52.236;5.164;2024-02-15T01:36:37;101538.25;;;13.54;82.82
84316;BME280;74496;52.236;5.164;2024-02-15T01:39:03;101545.50;;;13.52;83.28
84316;BME280;74496;52.236;5.164;2024-02-15T01:41:30;101535.59;;;13.54;82.81
84316;BME280;74496;52.236;5.164;2024-02-15T01:43:57;101533.94;;;13.63;83.17
84316;BME280;74496;52.236;5.164;2024-02-15T01:46:24;101533.63;;;13.75;82.45
84316;BME280;74496;52.236;5.164;2024-02-15T01:48:52;101533.34;;;13.69;82.40
84316;BME280;74496;52.236;5.164;2024-02-15T01:51:23;101533.34;;;13.69;82.81
84316;BME280;74496;52.236;5.164;2024-02-15T01:53:52;101525.28;;;13.51;82.99
84316;BME280;74496;52.236;5.164;2024-02-15T01:56:19;101517.06;;;13.54;83.12
84316;BME280;74496;52.236;5.164;2024-02-15T01:58:48;101521.25;;;13.56;83.39
84316;BME280;74496;52.236;5.164;2024-02-15T02:01:15;101507.84;;;13.58;83.24
84316;BME280;74496;52.236;5.164;2024-02-15T02:03:43;101510.91;;;13.63;82.72
84316;BME280;74496;52.236;5.164;2024-02-15T02:06:11;101496.41;;;13.57;83.08
84316;BME280;74496;52.236;5.164;2024-02-15T02:08:39;101512.19;;;13.59;83.24
84316;BME280;74496;52.236;5.164;2024-02-15T02:11:06;101516.06;;;13.55;83.52
84316;BME280;74496;52.236;5.164;2024-02-15T02:13:33;101519.16;;;13.50;83.37
84316;BME280;74496;52.236;5.164;2024-02-15T02:16:00;101517.75;;;13.56;83.18
84316;BME280;74496;52.236;5.164;2024-02-15T02:18:26;101514.56;;;13.52;83.10
84316;BME280;74496;52.236;5.164;2024-02-15T02:20:53;101509.94;;;13.54;83.06
84316;BME280;74496;52.236;5.164;2024-02-15T02:23:25;101506.16;;;13.57;82.87
84316;BME280;74496;52.236;5.164;2024-02-15T02:25:54;101500.03;;;13.56;83.03
84316;BME280;74496;52.236;5.164;2024-02-15T02:28:21;101506.72;;;13.60;82.96
84316;BME280;74496;52.236;5.164;2024-02-15T02:30:48;101504.22;;;13.59;83.13
84316;BME280;74496;52.236;5.164;2024-02-15T02:33:15;101505.63;;;13.53;83.12
84316;BME280;74496;52.236;5.164;2024-02-15T02:35:44;101506.28;;;13.55;83.13
84316;BME280;74496;52.236;5.164;2024-02-15T02:38:12;101497.94;;;13.60;82.91
84316;BME280;74496;52.236;5.164;2024-02-15T02:40:40;101498.34;;;13.55;83.12
84316;BME280;74496;52.236;5.164;2024-02-15T02:43:08;101501.31;;;13.52;83.33
84316;BME280;74496;52.236;5.164;2024-02-15T02:45:35;101498.22;;;13.57;83.13
84316;BME280;74496;52.236;5.164;2024-02-15T02:48:02;101508.09;;;13.65;83.07
84316;BME280;74496;52.236;5.164;2024-02-15T02:50:29;101503.53;;;13.57;82.95
84316;BME280;74496;52.236;5.164;2024-02-15T02:52:55;101492.47;;;13.61;83.17
84316;BME280;74496;52.236;5.164;2024-02-15T02:55:22;101487.91;;;13.44;83.47
84316;BME280;74496;52.236;5.164;2024-02-15T02:57:49;101490.25;;;13.57;83.02
84316;BME280;74496;52.236;5.164;2024-02-15T03:00:18;101484.53;;;13.52;83.20
84316;BME280;74496;52.236;5.164;2024-02-15T03:02:46;101481.59;;;13.55;83.15
84316;BME280;74496;52.236;5.164;2024-02-15T03:05:13;101485.34;;;13.62;83.23
84316;BME280;74496;52.236;5.164;2024-02-15T03:07:40;101482.03;;;13.60;82.96
84316;BME280;74496;52.236;5.164;2024-02-15T03:10:08;101481.47;;;13.56;83.29
84316;BME280;74496;52.236;5.164;2024-02-15T03:12:39;101481.63;;;13.45;83.19
84316;BME280;74496;52.236;5.164;2024-02-15T03:15:07;101484.13;;;13.56;82.86
84316;BME280;74496;52.236;5.164;2024-02-15T03:17:37;101486.50;;;13.59;82.90
84316;BME280;74496;52.236;5.164;2024-02-15T03:20:05;101490.66;;;13.62;82.94
84316;BME280;74496;52.236;5.164;2024-02-15T03:22:36;101485.09;;;13.55;82.85
84316;BME280;74496;52.236;5.164;2024-02-15T03:25:04;101491.09;;;13.57;82.66
84316;BME280;74496;52.236;5.164;2024-02-15T03:27:33;101491.66;;;13.61;82.43
84316;BME280;74496;52.236;5.164;2024-02-15T03:30:00;101496.66;;;13.64;82.59
84316;BME280;74496;52.236;5.164;2024-02-15T03:32:26;101495.13;;;13.52;82.99
84316;BME280;74496;52.236;5.164;2024-02-15T03:34:54;101494.59;;;13.58;82.19
84316;BME280;74496;52.236;5.164;2024-02-15T03:37:21;101498.50;;;13.64;82.86
84316;BME280;74496;52.236;5.164;2024-02-15T03:39:48;101495.84;;;13.64;82.60
84316;BME280;74496;52.236;5.164;2024-02-15T03:42:14;101491.38;;;13.64;82.61
84316;BME280;74496;52.236;5.164;2024-02-15T03:44:41;101486.22;;;13.63;82.90
84316;BME280;74496;52.236;5.164;2024-02-15T03:47:07;101479.94;;;13.64;82.55
84316;BME280;74496;52.236;5.164;2024-02-15T03:49:34;101489.28;;;13.68;82.64
84316;BME280;74496;52.236;5.164;2024-02-15T03:52:02;101483.84;;;13.69;82.26
84316;BME280;74496;52.236;5.164;2024-02-15T03:54:29;101477.28;;;13.64;82.35
84316;BME280;74496;52.236;5.164;2024-02-15T03:56:57;101483.56;;;13.63;82.62
84316;BME280;74496;52.236;5.164;2024-02-15T03:59:23;101471.16;;;13.63;82.29
84316;BME280;74496;52.236;5.164;2024-02-15T04:01:52;101481.47;;;13.66;82.38
84316;BME280;74496;52.236;5.164;2024-02-15T04:04:19;101480.31;;;13.69;82.46
84316;BME280;74496;52.236;5.164;2024-02-15T04:06:47;101480.91;;;13.63;83.01
84316;BME280;74496;52.236;5.164;2024-02-15T04:09:15;101478.25;;;13.72;82.32
84316;BME280;74496;52.236;5.164;2024-02-15T04:11:42;101471.69;;;13.76;82.16
84316;BME280;74496;52.236;5.164;2024-02-15T04:14:09;101468.47;;;13.73;81.94
84316;BME280;74496;52.236;5.164;2024-02-15T04:16:36;101477.84;;;13.67;82.25
84316;BME280;74496;52.236;5.164;2024-02-15T04:19:03;101474.34;;;13.67;82.70
84316;BME280;74496;52.236;5.164;2024-02-15T04:21:30;101474.75;;;13.62;82.22
84316;BME280;74496;52.236;5.164;2024-02-15T04:23:57;101471.72;;;13.57;82.66
84316;BME280;74496;52.236;5.164;2024-02-15T04:26:26;101470.88;;;13.56;82.91
84316;BME280;74496;52.236;5.164;2024-02-15T04:28:55;101469.78;;;13.59;82.86
84316;BME280;74496;52.236;5.164;2024-02-15T04:31:22;101458.84;;;13.62;82.79
84316;BME280;74496;52.236;5.164;2024-02-15T04:33:52;101465.69;;;13.65;82.83
84316;BME280;74496;52.236;5.164;2024-02-15T04:36:19;101464.75;;;13.56;83.14
84316;BME280;74496;52.236;5.164;2024-02-15T04:38:49;101456.47;;;13.69;82.71
84316;BME280;74496;52.236;5.164;2024-02-15T04:41:16;101467.50;;;13.64;82.91
84316;BME280;74496;52.236;5.164;2024-02-15T04:43:47;101458.03;;;13.61;82.85
84316;BME280;74496;52.236;5.164;2024-02-15T04:46:13;101449.66;;;13.66;82.83
84316;BME280;74496;52.236;5.164;2024-02-15T04:48:40;101456.47;;;13.69;82.73
84316;BME280;74496;52.236;5.164;2024-02-15T04:51:08;101451.59;;;13.64;82.99
84316;BME280;74496;52.236;5.164;2024-02-15T04:53:35;101451.03;;;13.70;82.99
84316;BME280;74496;52.236;5.164;2024-02-15T04:56:05;101447.69;;;13.68;82.99
84316;BME280;74496;52.236;5.164;2024-02-15T04:58:37;101447.94;;;13.75;82.39
84316;BME280;74496;52.236;5.164;2024-02-15T05:01:13;101447.69;;;13.68;82.52
84316;BME280;74496;52.236;5.164;2024-02-15T05:03:41;101455.91;;;13.65;82.89
84316;BME280;74496;52.236;5.164;2024-02-15T05:06:07;101454.94;;;13.76;82.35
84316;BME280;74496;52.236;5.164;2024-02-15T05:08:36;101455.50;;;13.70;82.50
84316;BME280;74496;52.236;5.164;2024-02-15T05:11:03;101453.81;;;13.69;82.58
84316;BME280;74496;52.236;5.164;2024-02-15T05:13:32;101455.94;;;13.55;83.48
84316;BME280;74496;52.236;5.164;2024-02-15T05:15:59;101457.47;;;13.68;82.75
84316;BME280;74496;52.236;5.164;2024-02-15T05:18:27;101451.63;;;13.54;83.61
84316;BME280;74496;52.236;5.164;2024-02-15T05:20:56;101465.00;;;13.63;83.07
84316;BME280;74496;52.236;5.164;2024-02-15T05:23:22;101440.59;;;13.59;83.17
84316;BME280;74496;52.236;5.164;2024-02-15T05:25:50;101434.06;;;13.53;83.43
84316;BME280;74496;52.236;5.164;2024-02-15T05:28:19;101418.00;;;13.45;83.95
84316;BME280;74496;52.236;5.164;2024-02-15T05:31:09;101406.16;;;13.49;83.94
84316;BME280;74496;52.236;5.164;2024-02-15T05:33:37;101390.00;;;13.52;83.64
84316;BME280;74496;52.236;5.164;2024-02-15T05:36:08;101382.88;;;13.53;83.84
84316;BME280;74496;52.236;5.164;2024-02-15T05:38:35;101385.94;;;13.38;84.48
84316;BME280;74496;52.236;5.164;2024-02-15T05:41:02;101375.59;;;13.55;83.60
84316;BME280;74496;52.236;5.164;2024-02-15T05:43:29;101375.59;;;13.55;84.00
84316;BME280;74496;52.236;5.164;2024-02-15T05:45:57;101384.53;;;13.54;84.23
84316;BME280;74496;52.236;5.164;2024-02-15T05:48:26;101396.94;;;13.63;83.70
84316;BME280;74496;52.236;5.164;2024-02-15T05:50:54;101390.94;;;13.51;84.01
84316;BME280;74496;52.236;5.164;2024-02-15T05:53:22;101397.47;;;13.67;83.56
84316;BME280;74496;52.236;5.164;2024-02-15T05:55:49;101389.09;;;13.61;83.85
84316;BME280;74496;52.236;5.164;2024-02-15T05:58:16;101389.66;;;13.55;84.06
84316;BME280;74496;52.236;5.164;2024-02-15T06:00:43;101399.03;;;13.59;84.07
84316;BME280;74496;52.236;5.164;2024-02-15T06:03:12;101394.44;;;13.52;84.56
84316;BME280;74496;52.236;5.164;2024-02-15T06:05:39;101401.97;;;13.56;83.85
84316;BME280;74496;52.236;5.164;2024-02-15T06:08:07;101394.69;;;13.58;84.16
84316;BME280;74496;52.236;5.164;2024-02-15T06:10:34;101399.31;;;13.56;84.02
84316;BME280;74496;52.236;5.164;2024-02-15T06:13:01;101398.59;;;13.64;83.95
84316;BME280;74496;52.236;5.164;2024-02-15T06:15:27;101400.13;;;13.67;84.14
84316;BME280;74496;52.236;5.164;2024-02-15T06:17:54;101404.59;;;13.66;83.96
84316;BME280;74496;52.236;5.164;2024-02-15T06:20:22;101402.63;;;13.58;84.19
84316;BME280;74496;52.236;5.164;2024-02-15T06:22:50;101401.78;;;13.68;84.02
84316;BME280;74496;52.236;5.164;2024-02-15T06:25:18;101403.88;;;13.64;83.78
84316;BME280;74496;52.236;5.164;2024-02-15T06:27:46;101397.03;;;13.71;83.88
84316;BME280;74496;52.236;5.164;2024-02-15T06:30:14;101384.50;;;13.64;83.87
84316;BME280;74496;52.236;5.164;2024-02-15T06:32:58;101387.69;;;13.67;83.58
84316;BME280;74496;52.236;5.164;2024-02-15T06:35:45;101395.22;;;13.62;84.28
84316;BME280;74496;52.236;5.164;2024-02-15T06:38:29;101397.22;;;13.60;84.16
84316;BME280;74496;52.236;5.164;2024-02-15T06:41:15;101382.88;;;13.53;84.31
84316;BME280;74496;52.236;5.164;2024-02-15T06:43:44;101377.69;;;13.51;84.34
84316;BME280;74496;52.236;5.164;2024-02-15T06:46:11;101370.84;;;13.58;84.01
84316;BME280;74496;52.236;5.164;2024-02-15T06:48:41;101378.66;;;13.60;84.06
84316;BME280;74496;52.236;5.164;2024-02-15T06:51:12;101389.53;;;13.67;83.71
84316;BME280;74496;52.236;5.164;2024-02-15T06:53:40;101387.16;;;13.64;84.30
84316;BME280;74496;52.236;5.164;2024-02-15T06:56:08;101384.34;;;13.65;83.40
84316;BME280;74496;52.236;5.164;2024-02-15T06:58:37;101395.22;;;13.62;84.36
84316;BME280;74496;52.236;5.164;2024-02-15T07:01:05;101393.28;;;13.64;84.30
84316;BME280;74496;52.236;5.164;2024-02-15T07:03:33;101395.94;;;13.64;84.06
84316;BME280;74496;52.236;5.164;2024-02-15T07:05:59;101404.03;;;13.63;84.06
84316;BME280;74496;52.236;5.164;2024-02-15T07:08:28;101404.63;;;13.56;84.29
84316;BME280;74496;52.236;5.164;2024-02-15T07:10:55;101404.19;;;13.61;84.55
84316;BME280;74496;52.236;5.164;2024-02-15T07:13:21;101399.56;;;13.63;84.19
84316;BME280;74496;52.236;5.164;2024-02-15T07:15:50;101405.44;;;13.67;83.81
84316;BME280;74496;52.236;5.164;2024-02-15T07:18:17;101407.78;;;13.70;83.79
84316;BME280;74496;52.236;5.164;2024-02-15T07:20:45;101416.69;;;13.69;84.10
84316;BME280;74496;52.236;5.164;2024-02-15T07:23:12;101423.69;;;13.70;84.25
84316;BME280;74496;52.236;5.164;2024-02-15T07:25:39;101438.59;;;13.80;83.38
84316;BME280;74496;52.236;5.164;2024-02-15T07:28:06;101440.56;;;13.69;83.87
84316;BME280;74496;52.236;5.164;2024-02-15T07:30:36;101429.66;;;13.81;83.36
84316;BME280;74496;52.236;5.164;2024-02-15T07:33:05;101426.91;;;13.73;83.78
84316;BME280;74496;52.236;5.164;2024-02-15T07:35:32;101426.19;;;13.71;83.65
84316;BME280;74496;52.236;5.164;2024-02-15T07:37:58;101421.72;;;13.72;84.28
84316;BME280;74496;52.236;5.164;2024-02-15T07:40:27;101424.38;;;13.72;84.56
84316;BME280;74496;52.236;5.164;2024-02-15T07:42:56;101415.47;;;13.63;84.37
84316;BME280;74496;52.236;5.164;2024-02-15T07:45:22;101415.19;;;13.66;84.18
84316;BME280;74496;52.236;5.164;2024-02-15T07:47:49;101395.94;;;13.64;84.53
84316;BME280;74496;52.236;5.164;2024-02-15T07:50:17;101397.06;;;13.61;84.14
84316;BME280;74496;52.236;5.164;2024-02-15T07:52:48;101389.13;;;13.52;84.62
84316;BME280;74496;52.236;5.164;2024-02-15T07:55:17;101402.78;;;13.57;84.61
84316;BME280;74496;52.236;5.164;2024-02-15T07:57:47;101410.75;;;13.57;84.46
84316;BME280;74496;52.236;5.164;2024-02-15T08:00:14;101413.53;;;13.55;84.89
84316;BME280;74496;52.236;5.164;2024-02-15T08:02:42;101419.09;;;13.62;84.48
84316;BME280;74496;52.236;5.164;2024-02-15T08:05:09;101408.81;;;13.59;84.51
84316;BME280;74496;52.236;5.164;2024-02-15T08:07:41;101400.97;;;13.67;84.24
84316;BME280;74496;52.236;5.164;2024-02-15T08:10:08;101403.59;;;13.67;84.04
84316;BME280;74496;52.236;5.164;2024-02-15T08:12:39;101395.66;;;13.67;84.39
84316;BME280;74496;52.236;5.164;2024-02-15T08:15:07;101401.66;;;13.69;84.02
84316;BME280;74496;52.236;5.164;2024-02-15T08:17:38;101399.84;;;13.70;83.87
84316;BME280;74496;52.236;5.164;2024-02-15T08:20:07;101400.78;;;13.69;84.41
84316;BME280;74496;52.236;5.164;2024-02-15T08:22:34;101400.38;;;13.73;84.07
84316;BME280;74496;52.236;5.164;2024-02-15T08:25:06;101396.75;;;13.74;83.70
84316;BME280;74496;52.236;5.164;2024-02-15T08:27:37;101389.19;;;13.79;83.87
84316;BME280;74496;52.236;5.164;2024-02-15T08:30:07;101393.97;;;13.76;84.32
84316;BME280;74496;52.236;5.164;2024-02-15T08:32:36;101377.19;;;13.75;84.37
84316;BME280;74496;52.236;5.164;2024-02-15T08:35:03;101376.25;;;13.67;84.58
84316;BME280;74496;52.236;5.164;2024-02-15T08:37:31;101368.97;;;13.69;84.37
84316;BME280;74496;52.236;5.164;2024-02-15T08:39:59;101365.59;;;13.86;83.84
84316;BME280;74496;52.236;5.164;2024-02-15T08:42:27;101370.22;;;13.74;84.23
84316;BME280;74496;52.236;5.164;2024-02-15T08:44:54;101357.63;;;13.86;83.92
84316;BME280;74496;52.236;5.164;2024-02-15T08:47:21;101361.41;;;13.83;83.97
84316;BME280;74496;52.236;5.164;2024-02-15T08:49:47;101362.94;;;13.86;83.61
84316;BME280;74496;52.236;5.164;2024-02-15T08:52:14;101363.22;;;13.83;83.77
84316;BME280;74496;52.236;5.164;2024-02-15T08:54:44;101367.41;;;13.86;84.00
84316;BME280;74496;52.236;5.164;2024-02-15T08:57:10;101364.06;;;13.83;84.22
84316;BME280;74496;52.236;5.164;2024-02-15T08:59:39;101356.06;;;13.93;83.62
84316;BME280;74496;52.236;5.164;2024-02-15T09:02:08;101360.00;;;13.89;83.90
84316;BME280;74496;52.236;5.164;2024-02-15T09:04:34;101368.09;;;13.88;83.56
84316;BME280;74496;52.236;5.164;2024-02-15T09:07:01;101354.41;;;13.92;83.95
84316;BME280;74496;52.236;5.164;2024-02-15T09:09:29;101357.38;;;13.79;83.92
84316;BME280;74496;52.236;5.164;2024-02-15T09:12:00;101362.41;;;13.82;84.45
84316;BME280;74496;52.236;5.164;2024-02-15T09:14:27;101361.41;;;13.83;84.04
84316;BME280;74496;52.236;5.164;2024-02-15T09:16:55;101360.00;;;13.89;83.74
84316;BME280;74496;52.236;5.164;2024-02-15T09:19:22;101359.34;;;13.77;84.53
84316;BME280;74496;52.236;5.164;2024-02-15T09:21:49;101370.47;;;13.81;84.23
84316;BME280;74496;52.236;5.164;2024-02-15T09:24:16;101373.38;;;13.88;83.83
84316;BME280;74496;52.236;5.164;2024-02-15T09:26:43;101370.16;;;13.94;83.56
84316;BME280;74496;52.236;5.164;2024-02-15T09:29:09;101367.78;;;13.91;83.70
84316;BME280;74496;52.236;5.164;2024-02-15T09:31:37;101373.69;;;13.84;83.96
84316;BME280;74496;52.236;5.164;2024-02-15T09:34:06;101370.06;;;13.86;84.11
84316;BME280;74496;52.236;5.164;2024-02-15T09:36:34;101377.72;;;13.89;84.44
84316;BME280;74496;52.236;5.164;2024-02-15T09:39:03;101373.50;;;13.96;83.74
84316;BME280;74496;52.236;5.164;2024-02-15T09:41:31;101379.69;;;13.87;83.84
84316;BME280;74496;52.236;5.164;2024-02-15T09:43:59;101377.84;;;13.87;84.23
84316;BME280;74496;52.236;5.164;2024-02-15T09:46:26;101385.38;;;13.92;84.11
84316;BME280;74496;52.236;5.164;2024-02-15T09:48:55;101385.81;;;13.87;83.92
84316;BME280;74496;52.236;5.164;2024-02-15T09:51:25;101378.69;;;13.88;83.91
84316;BME280;74496;52.236;5.164;2024-02-15T09:53:52;101383.31;;;13.86;84.01
84316;BME280;74496;52.236;5.164;2024-02-15T09:56:20;101372.69;;;13.95;83.94
84316;BME280;74496;52.236;5.164;2024-02-15T09:58:50;101374.75;;;13.92;83.95
84316;BME280;74496;52.236;5.164;2024-02-15T10:01:18;101368.63;;;13.91;84.26
84316;BME280;74496;52.236;5.164;2024-02-15T10:03:48;101370.28;;;14.02;83.92
84316;BME280;74496;52.236;5.164;2024-02-15T10:06:16;101372.47;;;14.06;83.39
84316;BME280;74496;52.236;5.164;2024-02-15T10:08:45;101378.06;;;14.03;83.75
84316;BME280;74496;52.236;5.164;2024-02-15T10:11:12;101374.66;;;14.11;83.25
84316;BME280;74496;52.236;5.164;2024-02-15T10:13:40;101364.75;;;14.13;83.33
84316;BME280;74496;52.236;5.164;2024-02-15T10:16:16;101374.84;;;14.10;83.54
84316;BME280;74496;52.236;5.164;2024-02-15T10:18:44;101375.31;;;14.23;83.43
84316;BME280;74496;52.236;5.164;2024-02-15T10:21:23;101374.78;;;14.19;83.07
84316;BME280;74496;52.236;5.164;2024-02-15T10:24:02;101383.13;;;14.24;82.99
84316;BME280;74496;52.236;5.164;2024-02-15T10:26:30;101377.84;;;14.15;83.27
84316;BME280;74496;52.236;5.164;2024-02-15T10:29:10;101377.28;;;14.21;83.16
84316;BME280;74496;52.236;5.164;2024-02-15T10:31:38;101370.50;;;14.36;82.55
84316;BME280;74496;52.236;5.164;2024-02-15T10:34:07;101376.63;;;14.37;82.35
84316;BME280;74496;52.236;5.164;2024-02-15T10:36:34;101371.78;;;14.32;82.65
84316;BME280;74496;52.236;5.164;2024-02-15T10:39:12;101375.03;;;14.44;81.69
84316;BME280;74496;52.236;5.164;2024-02-15T10:41:44;101372.16;;;14.37;82.80
84316;BME280;74496;52.236;5.164;2024-02-15T10:44:15;101374.75;;;14.47;82.31
84316;BME280;74496;52.236;5.164;2024-02-15T10:46:42;101364.97;;;14.47;82.28
84316;BME280;74496;52.236;5.164;2024-02-15T10:49:10;101366.94;;;14.45;82.30
84316;BME280;74496;52.236;5.164;2024-02-15T10:51:39;101361.25;;;14.40;82.63
84316;BME280;74496;52.236;5.164;2024-02-15T10:54:13;101367.09;;;14.44;82.62
84316;BME280;74496;52.236;5.164;2024-02-15T10:56:43;101361.69;;;14.36;83.22
84316;BME280;74496;52.236;5.164;2024-02-15T10:59:17;101369.31;;;14.21;83.57
84316;BME280;74496;52.236;5.164;2024-02-15T11:01:45;101365.41;;;14.43;82.31
84316;BME280;74496;52.236;5.164;2024-02-15T11:04:14;101364.72;;;14.41;82.51
84316;BME280;74496;52.236;5.164;2024-02-15T11:06:43;101367.63;;;14.47;82.30
84316;BME280;74496;52.236;5.164;2024-02-15T11:09:10;101363.31;;;14.46;82.21
84316;BME280;74496;52.236;5.164;2024-02-15T11:11:41;101360.94;;;14.43;82.71
84316;BME280;74496;52.236;5.164;2024-02-15T11:14:28;101362.31;;;14.47;82.86
84316;BME280;74496;52.236;5.164;2024-02-15T11:16:56;101361.59;;;14.55;81.97
84316;BME280;74496;52.236;5.164;2024-02-15T11:19:44;101358.25;;;14.53;82.56
84316;BME280;74496;52.236;5.164;2024-02-15T11:22:14;101348.88;;;14.59;82.90
84316;BME280;74496;52.236;5.164;2024-02-15T11:24:48;101351.53;;;14.59;82.67
84316;BME280;74496;52.236;5.164;2024-02-15T11:27:27;101348.78;;;14.68;82.23
84316;BME280;74496;52.236;5.164;2024-02-15T11:29:55;101351.81;;;14.73;82.04
84316;BME280;74496;52.236;5.164;2024-02-15T11:32:35;101345.38;;;14.76;82.20
84316;BME280;74496;52.236;5.164;2024-02-15T11:35:02;101345.66;;;14.73;82.23
84316;BME280;74496;52.236;5.164;2024-02-15T11:37:58;101336.88;;;14.72;82.47
84316;BME280;74496;52.236;5.164;2024-02-15T11:40:29;101334.56;;;14.95;81.77
84316;BME280;74496;52.236;5.164;2024-02-15T11:42:58;101336.09;;;14.98;81.32
84316;BME280;74496;52.236;5.164;2024-02-15T11:45:25;101320.91;;;14.90;82.19
84316;BME280;74496;52.236;5.164;2024-02-15T11:47:53;101319.38;;;15.06;82.02
84316;BME280;74496;52.236;5.164;2024-02-15T11:50:22;101324.78;;;14.96;81.28
84316;BME280;74496;52.236;5.164;2024-02-15T11:52:50;101321.81;;;14.99;81.47
84316;BME280;74496;52.236;5.164;2024-02-15T11:55:20;101326.53;;;15.05;82.04
84316;BME280;74496;52.236;5.164;2024-02-15T11:57:56;101327.72;;;15.11;81.49
84316;BME280;74496;52.236;5.164;2024-02-15T12:00:28;101325.28;;;15.17;81.87
84316;BME280;74496;52.236;5.164;2024-02-15T12:03:14;101320.19;;;15.24;81.69
84316;BME280;74496;52.236;5.164;2024-02-15T12:05:59;101313.47;;;15.20;82.05
84316;BME280;74496;52.236;5.164;2024-02-15T12:08:44;101310.00;;;15.19;81.95
84316;BME280;74496;52.236;5.164;2024-02-15T12:11:28;101303.63;;;15.30;81.83
84316;BME280;74496;52.236;5.164;2024-02-15T12:14:14;101290.16;;;15.32;82.19
84316;BME280;74496;52.236;5.164;2024-02-15T12:17:02;101289.56;;;15.46;81.46
84316;BME280;74496;52.236;5.164;2024-02-15T12:19:47;101288.72;;;15.45;81.54
84316;BME280;74496;52.236;5.164;2024-02-15T12:22:15;101285.44;;;15.52;81.20
84316;BME280;74496;52.236;5.164;2024-02-15T12:24:42;101282.34;;;15.64;80.94
84316;BME280;74496;52.236;5.164;2024-02-15T12:27:09;101296.88;;;15.78;80.59
84316;BME280;74496;52.236;5.164;2024-02-15T12:29:37;101284.09;;;15.82;80.79
84316;BME280;74496;52.236;5.164;2024-02-15T12:32:04;101276.47;;;15.87;80.41
84316;BME280;74496;52.236;5.164;2024-02-15T12:34:30;101278.34;;;16.03;80.20
84316;BME280;74496;52.236;5.164;2024-02-15T12:37:06;101274.03;;;16.10;80.02
84316;BME280;74496;52.236;5.164;2024-02-15T12:39:34;101263.91;;;16.13;80.46
84316;BME280;74496;52.236;5.164;2024-02-15T12:42:02;101263.94;;;16.30;79.84
84316;BME280;74496;52.236;5.164;2024-02-15T12:44:29;101261.94;;;16.40;79.20
84316;BME280;74496;52.236;5.164;2024-02-15T12:46:59;101252.31;;;16.55;78.45
84316;BME280;74496;52.236;5.164;2024-02-15T12:49:29;101250.31;;;16.65;78.85
84316;BME280;74496;52.236;5.164;2024-02-15T12:55:08;101255.94;;;16.71;78.15
84316;BME280;74496;52.236;5.164;2024-02-15T12:57:36;101252.97;;;16.90;78.16
84316;BME280;74496;52.236;5.164;2024-02-15T13:00:07;101253.63;;;17.08;77.63
84316;BME280;74496;52.236;5.164;2024-02-15T13:02:40;101247.84;;;17.36;75.67